<?xml version="1.0" encoding="UTF-8" standalone="no" ?>
<gpx xmlns="http://www.topografix.com/GPX/1/1" xmlns:xsi="http://www.w3.org/2001/XMLSchema-instance" xsi:schemaLocation="http://www.topografix.com/GPX/1/1 http://www.topografix.com/GPX/1/1/gpx.xsd" version="1.1" creator="VisuGPX - https://www.visugpx.com">
  <metadata>
    <name>Mas de la Barque - Pic Cassini - Bellecoste</name>
    <desc><![CDATA[Juillet 2015]]></desc>
  </metadata>
  <trk>
    <name><![CDATA[mas de la barque]]></name>
    <trkseg>
      <trkpt lat="44.38581" lon="3.87551">
        <ele>1356.557617</ele>
        <time>2015-07-19T08:20:49Z</time>
      </trkpt>
      <trkpt lat="44.38563" lon="3.87502">
        <ele>1360.402832</ele>
        <time>2015-07-19T08:22:08Z</time>
      </trkpt>
      <trkpt lat="44.38592" lon="3.87498">
        <ele>1366.170654</ele>
        <time>2015-07-19T08:23:09Z</time>
      </trkpt>
      <trkpt lat="44.3863" lon="3.87475">
        <ele>1370.015869</ele>
        <time>2015-07-19T08:23:58Z</time>
      </trkpt>
      <trkpt lat="44.38647" lon="3.8747">
        <ele>1373.861328</ele>
        <time>2015-07-19T08:24:13Z</time>
      </trkpt>
      <trkpt lat="44.38674" lon="3.87408">
        <ele>1379.148438</ele>
        <time>2015-07-19T08:25:05Z</time>
      </trkpt>
      <trkpt lat="44.3874" lon="3.87316">
        <ele>1395.010254</ele>
        <time>2015-07-19T08:26:55Z</time>
      </trkpt>
      <trkpt lat="44.388" lon="3.87268">
        <ele>1400.297607</ele>
        <time>2015-07-19T08:28:02Z</time>
      </trkpt>
      <trkpt lat="44.3885" lon="3.87249">
        <ele>1407.988281</ele>
        <time>2015-07-19T08:28:53Z</time>
      </trkpt>
      <trkpt lat="44.38895" lon="3.87241">
        <ele>1412.794678</ele>
        <time>2015-07-19T08:29:39Z</time>
      </trkpt>
      <trkpt lat="44.38917" lon="3.87231">
        <ele>1416.15918</ele>
        <time>2015-07-19T08:30:05Z</time>
      </trkpt>
      <trkpt lat="44.38935" lon="3.87229">
        <ele>1419.043213</ele>
        <time>2015-07-19T08:30:55Z</time>
      </trkpt>
      <trkpt lat="44.38948" lon="3.87223">
        <ele>1420.485352</ele>
        <time>2015-07-19T08:31:09Z</time>
      </trkpt>
      <trkpt lat="44.38993" lon="3.87219">
        <ele>1425.291748</ele>
        <time>2015-07-19T08:31:55Z</time>
      </trkpt>
      <trkpt lat="44.39005" lon="3.87203">
        <ele>1426.733887</ele>
        <time>2015-07-19T08:32:16Z</time>
      </trkpt>
      <trkpt lat="44.39033" lon="3.87183">
        <ele>1429.136963</ele>
        <time>2015-07-19T08:32:44Z</time>
      </trkpt>
      <trkpt lat="44.39109" lon="3.87115">
        <ele>1438.750488</ele>
        <time>2015-07-19T08:34:07Z</time>
      </trkpt>
      <trkpt lat="44.39129" lon="3.87086">
        <ele>1441.634277</ele>
        <time>2015-07-19T08:34:33Z</time>
      </trkpt>
      <trkpt lat="44.39141" lon="3.87079">
        <ele>1442.595703</ele>
        <time>2015-07-19T08:34:48Z</time>
      </trkpt>
      <trkpt lat="44.3915" lon="3.8706">
        <ele>1444.998779</ele>
        <time>2015-07-19T08:35:07Z</time>
      </trkpt>
      <trkpt lat="44.39147" lon="3.87034">
        <ele>1448.843994</ele>
        <time>2015-07-19T08:35:22Z</time>
      </trkpt>
      <trkpt lat="44.39157" lon="3.87045">
        <ele>1446.921387</ele>
        <time>2015-07-19T08:36:30Z</time>
      </trkpt>
      <trkpt lat="44.39143" lon="3.87006">
        <ele>1449.324707</ele>
        <time>2015-07-19T08:36:48Z</time>
      </trkpt>
      <trkpt lat="44.39166" lon="3.8697">
        <ele>1453.170166</ele>
        <time>2015-07-19T08:37:25Z</time>
      </trkpt>
      <trkpt lat="44.39183" lon="3.86886">
        <ele>1457.976807</ele>
        <time>2015-07-19T08:38:22Z</time>
      </trkpt>
      <trkpt lat="44.39194" lon="3.86847">
        <ele>1461.822021</ele>
        <time>2015-07-19T08:38:52Z</time>
      </trkpt>
      <trkpt lat="44.39201" lon="3.8683">
        <ele>1461.822021</ele>
        <time>2015-07-19T08:39:06Z</time>
      </trkpt>
      <trkpt lat="44.3921" lon="3.86819">
        <ele>1463.744385</ele>
        <time>2015-07-19T08:39:19Z</time>
      </trkpt>
      <trkpt lat="44.39224" lon="3.86811">
        <ele>1466.628418</ele>
        <time>2015-07-19T08:39:37Z</time>
      </trkpt>
      <trkpt lat="44.39261" lon="3.86827">
        <ele>1471.915771</ele>
        <time>2015-07-19T08:40:14Z</time>
      </trkpt>
      <trkpt lat="44.39282" lon="3.86842">
        <ele>1475.760986</ele>
        <time>2015-07-19T08:40:45Z</time>
      </trkpt>
      <trkpt lat="44.39363" lon="3.86877">
        <ele>1491.622803</ele>
        <time>2015-07-19T08:42:52Z</time>
      </trkpt>
      <trkpt lat="44.3938" lon="3.8687">
        <ele>1494.026123</ele>
        <time>2015-07-19T08:43:05Z</time>
      </trkpt>
      <trkpt lat="44.39415" lon="3.86825">
        <ele>1496.429443</ele>
        <time>2015-07-19T08:44:07Z</time>
      </trkpt>
      <trkpt lat="44.39436" lon="3.86756">
        <ele>1501.716797</ele>
        <time>2015-07-19T08:45:05Z</time>
      </trkpt>
      <trkpt lat="44.39463" lon="3.86704">
        <ele>1505.562012</ele>
        <time>2015-07-19T08:45:50Z</time>
      </trkpt>
      <trkpt lat="44.39474" lon="3.86694">
        <ele>1506.523193</ele>
        <time>2015-07-19T08:46:09Z</time>
      </trkpt>
      <trkpt lat="44.39487" lon="3.86687">
        <ele>1508.445801</ele>
        <time>2015-07-19T08:46:35Z</time>
      </trkpt>
      <trkpt lat="44.39498" lon="3.86663">
        <ele>1510.849121</ele>
        <time>2015-07-19T08:46:59Z</time>
      </trkpt>
      <trkpt lat="44.3951" lon="3.86651">
        <ele>1512.291016</ele>
        <time>2015-07-19T08:47:12Z</time>
      </trkpt>
      <trkpt lat="44.39522" lon="3.86631">
        <ele>1515.175049</ele>
        <time>2015-07-19T08:47:34Z</time>
      </trkpt>
      <trkpt lat="44.39538" lon="3.86617">
        <ele>1516.617188</ele>
        <time>2015-07-19T08:47:50Z</time>
      </trkpt>
      <trkpt lat="44.39556" lon="3.8658">
        <ele>1519.981689</ele>
        <time>2015-07-19T08:48:23Z</time>
      </trkpt>
      <trkpt lat="44.39568" lon="3.8657">
        <ele>1519.981689</ele>
        <time>2015-07-19T08:48:38Z</time>
      </trkpt>
      <trkpt lat="44.39576" lon="3.86528">
        <ele>1523.346436</ele>
        <time>2015-07-19T08:49:07Z</time>
      </trkpt>
      <trkpt lat="44.39588" lon="3.86489">
        <ele>1527.672119</ele>
        <time>2015-07-19T08:49:36Z</time>
      </trkpt>
      <trkpt lat="44.39589" lon="3.86467">
        <ele>1528.633545</ele>
        <time>2015-07-19T08:49:51Z</time>
      </trkpt>
      <trkpt lat="44.39575" lon="3.86434">
        <ele>1531.036865</ele>
        <time>2015-07-19T08:50:14Z</time>
      </trkpt>
      <trkpt lat="44.39574" lon="3.86413">
        <ele>1531.998047</ele>
        <time>2015-07-19T08:50:28Z</time>
      </trkpt>
      <trkpt lat="44.39563" lon="3.86369">
        <ele>1533.440186</ele>
        <time>2015-07-19T08:51:50Z</time>
      </trkpt>
      <trkpt lat="44.3957" lon="3.86345">
        <ele>1534.401611</ele>
        <time>2015-07-19T08:52:04Z</time>
      </trkpt>
      <trkpt lat="44.39563" lon="3.86318">
        <ele>1536.804688</ele>
        <time>2015-07-19T08:52:24Z</time>
      </trkpt>
      <trkpt lat="44.39566" lon="3.86283">
        <ele>1537.766113</ele>
        <time>2015-07-19T08:52:49Z</time>
      </trkpt>
      <trkpt lat="44.39563" lon="3.86263">
        <ele>1539.688721</ele>
        <time>2015-07-19T08:53:02Z</time>
      </trkpt>
      <trkpt lat="44.39571" lon="3.86202">
        <ele>1542.572754</ele>
        <time>2015-07-19T08:53:45Z</time>
      </trkpt>
      <trkpt lat="44.39581" lon="3.86182">
        <ele>1545.937256</ele>
        <time>2015-07-19T08:54:02Z</time>
      </trkpt>
      <trkpt lat="44.39579" lon="3.86127">
        <ele>1548.821289</ele>
        <time>2015-07-19T08:54:35Z</time>
      </trkpt>
      <trkpt lat="44.39587" lon="3.861">
        <ele>1549.782715</ele>
        <time>2015-07-19T08:54:55Z</time>
      </trkpt>
      <trkpt lat="44.39589" lon="3.86073">
        <ele>1552.666504</ele>
        <time>2015-07-19T08:55:19Z</time>
      </trkpt>
      <trkpt lat="44.39601" lon="3.86021">
        <ele>1554.108643</ele>
        <time>2015-07-19T08:55:55Z</time>
      </trkpt>
      <trkpt lat="44.3958" lon="3.85961">
        <ele>1558.434326</ele>
        <time>2015-07-19T08:56:50Z</time>
      </trkpt>
      <trkpt lat="44.39553" lon="3.85904">
        <ele>1562.760254</ele>
        <time>2015-07-19T08:57:40Z</time>
      </trkpt>
      <trkpt lat="44.39532" lon="3.85846">
        <ele>1567.086426</ele>
        <time>2015-07-19T08:58:29Z</time>
      </trkpt>
      <trkpt lat="44.39505" lon="3.858">
        <ele>1569.970215</ele>
        <time>2015-07-19T08:59:02Z</time>
      </trkpt>
      <trkpt lat="44.395" lon="3.85785">
        <ele>1570.450928</ele>
        <time>2015-07-19T08:59:27Z</time>
      </trkpt>
      <trkpt lat="44.39497" lon="3.85755">
        <ele>1571.892822</ele>
        <time>2015-07-19T08:59:51Z</time>
      </trkpt>
      <trkpt lat="44.39488" lon="3.85724">
        <ele>1573.334961</ele>
        <time>2015-07-19T09:00:13Z</time>
      </trkpt>
      <trkpt lat="44.39497" lon="3.85703">
        <ele>1574.776855</ele>
        <time>2015-07-19T09:00:32Z</time>
      </trkpt>
      <trkpt lat="44.39509" lon="3.85699">
        <ele>1574.296143</ele>
        <time>2015-07-19T09:00:53Z</time>
      </trkpt>
      <trkpt lat="44.39526" lon="3.85705">
        <ele>1574.296143</ele>
        <time>2015-07-19T09:01:05Z</time>
      </trkpt>
      <trkpt lat="44.39583" lon="3.85695">
        <ele>1576.21875</ele>
        <time>2015-07-19T09:02:03Z</time>
      </trkpt>
      <trkpt lat="44.39601" lon="3.85689">
        <ele>1576.699463</ele>
        <time>2015-07-19T09:02:25Z</time>
      </trkpt>
      <trkpt lat="44.39617" lon="3.85692">
        <ele>1578.141357</ele>
        <time>2015-07-19T09:02:36Z</time>
      </trkpt>
      <trkpt lat="44.39659" lon="3.85688">
        <ele>1579.102539</ele>
        <time>2015-07-19T09:03:19Z</time>
      </trkpt>
      <trkpt lat="44.39677" lon="3.8569">
        <ele>1579.583252</ele>
        <time>2015-07-19T09:03:33Z</time>
      </trkpt>
      <trkpt lat="44.39709" lon="3.85708">
        <ele>1582.467529</ele>
        <time>2015-07-19T09:04:34Z</time>
      </trkpt>
      <trkpt lat="44.39774" lon="3.85731">
        <ele>1584.87085</ele>
        <time>2015-07-19T09:05:33Z</time>
      </trkpt>
      <trkpt lat="44.39805" lon="3.85737">
        <ele>1584.87085</ele>
        <time>2015-07-19T09:06:04Z</time>
      </trkpt>
      <trkpt lat="44.39813" lon="3.85718">
        <ele>1586.312744</ele>
        <time>2015-07-19T09:06:46Z</time>
      </trkpt>
      <trkpt lat="44.39831" lon="3.85712">
        <ele>1585.832031</ele>
        <time>2015-07-19T09:06:59Z</time>
      </trkpt>
      <trkpt lat="44.39876" lon="3.85688">
        <ele>1587.754639</ele>
        <time>2015-07-19T09:07:59Z</time>
      </trkpt>
      <trkpt lat="44.39913" lon="3.8565">
        <ele>1588.235352</ele>
        <time>2015-07-19T09:08:36Z</time>
      </trkpt>
      <trkpt lat="44.39938" lon="3.85614">
        <ele>1589.677246</ele>
        <time>2015-07-19T09:09:09Z</time>
      </trkpt>
      <trkpt lat="44.39958" lon="3.85596">
        <ele>1590.157959</ele>
        <time>2015-07-19T09:09:28Z</time>
      </trkpt>
      <trkpt lat="44.39967" lon="3.85577">
        <ele>1589.677246</ele>
        <time>2015-07-19T09:09:57Z</time>
      </trkpt>
      <trkpt lat="44.39989" lon="3.85562">
        <ele>1592.080566</ele>
        <time>2015-07-19T09:10:23Z</time>
      </trkpt>
      <trkpt lat="44.40024" lon="3.85583">
        <ele>1590.638428</ele>
        <time>2015-07-19T09:10:59Z</time>
      </trkpt>
      <trkpt lat="44.40016" lon="3.85566">
        <ele>1590.157959</ele>
        <time>2015-07-19T09:13:57Z</time>
      </trkpt>
      <trkpt lat="44.40019" lon="3.85547">
        <ele>1594.483643</ele>
        <time>2015-07-19T09:14:14Z</time>
      </trkpt>
      <trkpt lat="44.40019" lon="3.85518">
        <ele>1594.003174</ele>
        <time>2015-07-19T09:14:34Z</time>
      </trkpt>
      <trkpt lat="44.40028" lon="3.85505">
        <ele>1595.925781</ele>
        <time>2015-07-19T09:14:47Z</time>
      </trkpt>
      <trkpt lat="44.40018" lon="3.85485">
        <ele>1595.925781</ele>
        <time>2015-07-19T09:15:24Z</time>
      </trkpt>
      <trkpt lat="44.40022" lon="3.8536">
        <ele>1602.174316</ele>
        <time>2015-07-19T09:16:56Z</time>
      </trkpt>
      <trkpt lat="44.40021" lon="3.8531">
        <ele>1605.05835</ele>
        <time>2015-07-19T09:17:44Z</time>
      </trkpt>
      <trkpt lat="44.40018" lon="3.85287">
        <ele>1607.46167</ele>
        <time>2015-07-19T09:18:03Z</time>
      </trkpt>
      <trkpt lat="44.40024" lon="3.85271">
        <ele>1608.903564</ele>
        <time>2015-07-19T09:18:18Z</time>
      </trkpt>
      <trkpt lat="44.40024" lon="3.8521">
        <ele>1611.306885</ele>
        <time>2015-07-19T09:19:05Z</time>
      </trkpt>
      <trkpt lat="44.40036" lon="3.85168">
        <ele>1612.268311</ele>
        <time>2015-07-19T09:19:40Z</time>
      </trkpt>
      <trkpt lat="44.40032" lon="3.85147">
        <ele>1615.633057</ele>
        <time>2015-07-19T09:19:59Z</time>
      </trkpt>
      <trkpt lat="44.40022" lon="3.85124">
        <ele>1617.55542</ele>
        <time>2015-07-19T09:20:17Z</time>
      </trkpt>
      <trkpt lat="44.40003" lon="3.85111">
        <ele>1618.516846</ele>
        <time>2015-07-19T09:20:38Z</time>
      </trkpt>
      <trkpt lat="44.39995" lon="3.85093">
        <ele>1619.478271</ele>
        <time>2015-07-19T09:20:57Z</time>
      </trkpt>
      <trkpt lat="44.39964" lon="3.85068">
        <ele>1621.881348</ele>
        <time>2015-07-19T09:21:36Z</time>
      </trkpt>
      <trkpt lat="44.39939" lon="3.8504">
        <ele>1623.803955</ele>
        <time>2015-07-19T09:22:58Z</time>
      </trkpt>
      <trkpt lat="44.39913" lon="3.85024">
        <ele>1627.168701</ele>
        <time>2015-07-19T09:23:27Z</time>
      </trkpt>
      <trkpt lat="44.39886" lon="3.85001">
        <ele>1628.130127</ele>
        <time>2015-07-19T09:23:58Z</time>
      </trkpt>
      <trkpt lat="44.3989" lon="3.84982">
        <ele>1630.052734</ele>
        <time>2015-07-19T09:24:15Z</time>
      </trkpt>
      <trkpt lat="44.39918" lon="3.84915">
        <ele>1635.339844</ele>
        <time>2015-07-19T09:25:23Z</time>
      </trkpt>
      <trkpt lat="44.39946" lon="3.8488">
        <ele>1638.223877</ele>
        <time>2015-07-19T09:26:08Z</time>
      </trkpt>
      <trkpt lat="44.39955" lon="3.84861">
        <ele>1638.70459</ele>
        <time>2015-07-19T09:26:26Z</time>
      </trkpt>
      <trkpt lat="44.39964" lon="3.8485">
        <ele>1638.70459</ele>
        <time>2015-07-19T09:26:38Z</time>
      </trkpt>
      <trkpt lat="44.39982" lon="3.84802">
        <ele>1643.030273</ele>
        <time>2015-07-19T09:27:27Z</time>
      </trkpt>
      <trkpt lat="44.39984" lon="3.84782">
        <ele>1643.510986</ele>
        <time>2015-07-19T09:28:10Z</time>
      </trkpt>
      <trkpt lat="44.39998" lon="3.84771">
        <ele>1644.953125</ele>
        <time>2015-07-19T09:28:57Z</time>
      </trkpt>
      <trkpt lat="44.40027" lon="3.84716">
        <ele>1650.720947</ele>
        <time>2015-07-19T09:30:12Z</time>
      </trkpt>
      <trkpt lat="44.4004" lon="3.8471">
        <ele>1654.085693</ele>
        <time>2015-07-19T09:30:29Z</time>
      </trkpt>
      <trkpt lat="44.40048" lon="3.84699">
        <ele>1656.48877</ele>
        <time>2015-07-19T09:30:42Z</time>
      </trkpt>
      <trkpt lat="44.40078" lon="3.84644">
        <ele>1662.737549</ele>
        <time>2015-07-19T09:32:38Z</time>
      </trkpt>
      <trkpt lat="44.40107" lon="3.84626">
        <ele>1668.986084</ele>
        <time>2015-07-19T09:33:42Z</time>
      </trkpt>
      <trkpt lat="44.40099" lon="3.84609">
        <ele>1672.350586</ele>
        <time>2015-07-19T09:34:06Z</time>
      </trkpt>
      <trkpt lat="44.40118" lon="3.84611">
        <ele>1674.753906</ele>
        <time>2015-07-19T10:11:02Z</time>
      </trkpt>
      <trkpt lat="44.40129" lon="3.84596">
        <ele>1671.869873</ele>
        <time>2015-07-19T10:11:25Z</time>
      </trkpt>
      <trkpt lat="44.40167" lon="3.84593">
        <ele>1669.947266</ele>
        <time>2015-07-19T10:12:24Z</time>
      </trkpt>
      <trkpt lat="44.40186" lon="3.84599">
        <ele>1667.063477</ele>
        <time>2015-07-19T10:13:08Z</time>
      </trkpt>
      <trkpt lat="44.402" lon="3.84596">
        <ele>1664.660156</ele>
        <time>2015-07-19T10:13:30Z</time>
      </trkpt>
      <trkpt lat="44.40213" lon="3.84606">
        <ele>1662.737549</ele>
        <time>2015-07-19T10:13:46Z</time>
      </trkpt>
      <trkpt lat="44.40245" lon="3.8461">
        <ele>1659.372803</ele>
        <time>2015-07-19T10:14:17Z</time>
      </trkpt>
      <trkpt lat="44.4026" lon="3.84616">
        <ele>1657.930908</ele>
        <time>2015-07-19T10:14:35Z</time>
      </trkpt>
      <trkpt lat="44.40268" lon="3.84604">
        <ele>1656.48877</ele>
        <time>2015-07-19T10:14:48Z</time>
      </trkpt>
      <trkpt lat="44.40293" lon="3.84583">
        <ele>1653.60498</ele>
        <time>2015-07-19T10:15:12Z</time>
      </trkpt>
      <trkpt lat="44.40331" lon="3.84534">
        <ele>1650.720947</ele>
        <time>2015-07-19T10:16:14Z</time>
      </trkpt>
      <trkpt lat="44.40341" lon="3.84525">
        <ele>1649.279053</ele>
        <time>2015-07-19T10:16:31Z</time>
      </trkpt>
      <trkpt lat="44.40327" lon="3.84382">
        <ele>1645.914551</ele>
        <time>2015-07-19T10:18:36Z</time>
      </trkpt>
      <trkpt lat="44.4033" lon="3.84362">
        <ele>1644.953125</ele>
        <time>2015-07-19T10:18:47Z</time>
      </trkpt>
      <trkpt lat="44.40327" lon="3.84297">
        <ele>1641.588379</ele>
        <time>2015-07-19T10:19:38Z</time>
      </trkpt>
      <trkpt lat="44.40318" lon="3.84218">
        <ele>1638.223877</ele>
        <time>2015-07-19T10:21:43Z</time>
      </trkpt>
      <trkpt lat="44.40329" lon="3.84209">
        <ele>1635.339844</ele>
        <time>2015-07-19T10:22:09Z</time>
      </trkpt>
      <trkpt lat="44.40343" lon="3.84216">
        <ele>1635.820557</ele>
        <time>2015-07-19T10:25:04Z</time>
      </trkpt>
      <trkpt lat="44.40327" lon="3.84212">
        <ele>1636.781738</ele>
        <time>2015-07-19T10:28:13Z</time>
      </trkpt>
      <trkpt lat="44.40318" lon="3.84201">
        <ele>1636.781738</ele>
        <time>2015-07-19T10:28:23Z</time>
      </trkpt>
      <trkpt lat="44.40315" lon="3.84143">
        <ele>1631.494629</ele>
        <time>2015-07-19T10:29:38Z</time>
      </trkpt>
      <trkpt lat="44.40308" lon="3.84129">
        <ele>1630.533447</ele>
        <time>2015-07-19T10:30:03Z</time>
      </trkpt>
      <trkpt lat="44.40304" lon="3.84108">
        <ele>1629.572021</ele>
        <time>2015-07-19T10:30:19Z</time>
      </trkpt>
      <trkpt lat="44.40302" lon="3.84079">
        <ele>1628.61084</ele>
        <time>2015-07-19T10:30:40Z</time>
      </trkpt>
      <trkpt lat="44.40306" lon="3.8404">
        <ele>1625.24585</ele>
        <time>2015-07-19T10:31:22Z</time>
      </trkpt>
      <trkpt lat="44.40315" lon="3.84028">
        <ele>1622.362061</ele>
        <time>2015-07-19T10:31:43Z</time>
      </trkpt>
      <trkpt lat="44.4032" lon="3.84005">
        <ele>1620.920166</ele>
        <time>2015-07-19T10:32:01Z</time>
      </trkpt>
      <trkpt lat="44.40308" lon="3.83991">
        <ele>1616.594238</ele>
        <time>2015-07-19T10:33:22Z</time>
      </trkpt>
      <trkpt lat="44.40305" lon="3.83973">
        <ele>1616.594238</ele>
        <time>2015-07-19T10:33:38Z</time>
      </trkpt>
      <trkpt lat="44.40297" lon="3.8393">
        <ele>1611.787598</ele>
        <time>2015-07-19T10:34:16Z</time>
      </trkpt>
      <trkpt lat="44.403" lon="3.83902">
        <ele>1607.942383</ele>
        <time>2015-07-19T10:34:39Z</time>
      </trkpt>
      <trkpt lat="44.40285" lon="3.83882">
        <ele>1603.616455</ele>
        <time>2015-07-19T10:35:02Z</time>
      </trkpt>
      <trkpt lat="44.40264" lon="3.83829">
        <ele>1597.848633</ele>
        <time>2015-07-19T10:35:57Z</time>
      </trkpt>
      <trkpt lat="44.40252" lon="3.83815">
        <ele>1595.445068</ele>
        <time>2015-07-19T10:36:17Z</time>
      </trkpt>
      <trkpt lat="44.40247" lon="3.8375">
        <ele>1590.157959</ele>
        <time>2015-07-19T10:37:15Z</time>
      </trkpt>
      <trkpt lat="44.40231" lon="3.83717">
        <ele>1586.793213</ele>
        <time>2015-07-19T10:37:45Z</time>
      </trkpt>
      <trkpt lat="44.40225" lon="3.83664">
        <ele>1581.986816</ele>
        <time>2015-07-19T10:38:30Z</time>
      </trkpt>
      <trkpt lat="44.40219" lon="3.83649">
        <ele>1580.064209</ele>
        <time>2015-07-19T10:38:43Z</time>
      </trkpt>
      <trkpt lat="44.40185" lon="3.83615">
        <ele>1575.738037</ele>
        <time>2015-07-19T10:39:48Z</time>
      </trkpt>
      <trkpt lat="44.40146" lon="3.83612">
        <ele>1572.854248</ele>
        <time>2015-07-19T10:40:30Z</time>
      </trkpt>
      <trkpt lat="44.40117" lon="3.83638">
        <ele>1572.373535</ele>
        <time>2015-07-19T10:41:02Z</time>
      </trkpt>
      <trkpt lat="44.40032" lon="3.83641">
        <ele>1565.163818</ele>
        <time>2015-07-19T10:42:31Z</time>
      </trkpt>
      <trkpt lat="44.40002" lon="3.8365">
        <ele>1563.721436</ele>
        <time>2015-07-19T10:42:59Z</time>
      </trkpt>
      <trkpt lat="44.39927" lon="3.83684">
        <ele>1559.395752</ele>
        <time>2015-07-19T10:44:10Z</time>
      </trkpt>
      <trkpt lat="44.39884" lon="3.83684">
        <ele>1557.473145</ele>
        <time>2015-07-19T10:45:56Z</time>
      </trkpt>
      <trkpt lat="44.39842" lon="3.83676">
        <ele>1555.550537</ele>
        <time>2015-07-19T10:46:36Z</time>
      </trkpt>
      <trkpt lat="44.39809" lon="3.8365">
        <ele>1550.743896</ele>
        <time>2015-07-19T10:47:40Z</time>
      </trkpt>
      <trkpt lat="44.39796" lon="3.83633">
        <ele>1546.898438</ele>
        <time>2015-07-19T10:47:59Z</time>
      </trkpt>
      <trkpt lat="44.39779" lon="3.83577">
        <ele>1538.246826</ele>
        <time>2015-07-19T10:48:44Z</time>
      </trkpt>
      <trkpt lat="44.39762" lon="3.83549">
        <ele>1533.440186</ele>
        <time>2015-07-19T10:49:17Z</time>
      </trkpt>
      <trkpt lat="44.39756" lon="3.83532">
        <ele>1528.633545</ele>
        <time>2015-07-19T10:49:32Z</time>
      </trkpt>
      <trkpt lat="44.3973" lon="3.8351">
        <ele>1525.268799</ele>
        <time>2015-07-19T10:50:10Z</time>
      </trkpt>
      <trkpt lat="44.39706" lon="3.83495">
        <ele>1519.501221</ele>
        <time>2015-07-19T10:50:55Z</time>
      </trkpt>
      <trkpt lat="44.39685" lon="3.83459">
        <ele>1513.252441</ele>
        <time>2015-07-19T10:51:45Z</time>
      </trkpt>
      <trkpt lat="44.39672" lon="3.83451">
        <ele>1512.291016</ele>
        <time>2015-07-19T10:52:20Z</time>
      </trkpt>
      <trkpt lat="44.39649" lon="3.83449">
        <ele>1510.849121</ele>
        <time>2015-07-19T10:52:44Z</time>
      </trkpt>
      <trkpt lat="44.39637" lon="3.83442">
        <ele>1507.965332</ele>
        <time>2015-07-19T10:53:03Z</time>
      </trkpt>
      <trkpt lat="44.39631" lon="3.83421">
        <ele>1505.081299</ele>
        <time>2015-07-19T10:53:24Z</time>
      </trkpt>
      <trkpt lat="44.39605" lon="3.83391">
        <ele>1498.83252</ele>
        <time>2015-07-19T10:54:04Z</time>
      </trkpt>
      <trkpt lat="44.39581" lon="3.83385">
        <ele>1497.871338</ele>
        <time>2015-07-19T10:55:03Z</time>
      </trkpt>
      <trkpt lat="44.39564" lon="3.83372">
        <ele>1490.661377</ele>
        <time>2015-07-19T10:55:31Z</time>
      </trkpt>
      <trkpt lat="44.39475" lon="3.83318">
        <ele>1482.490234</ele>
        <time>2015-07-19T10:58:04Z</time>
      </trkpt>
      <trkpt lat="44.39465" lon="3.83305">
        <ele>1482.009521</ele>
        <time>2015-07-19T10:58:20Z</time>
      </trkpt>
      <trkpt lat="44.39448" lon="3.83305">
        <ele>1482.009521</ele>
        <time>2015-07-19T10:58:31Z</time>
      </trkpt>
      <trkpt lat="44.39423" lon="3.83296">
        <ele>1482.490234</ele>
        <time>2015-07-19T10:58:58Z</time>
      </trkpt>
      <trkpt lat="44.39405" lon="3.83286">
        <ele>1482.009521</ele>
        <time>2015-07-19T10:59:50Z</time>
      </trkpt>
      <trkpt lat="44.39395" lon="3.83275">
        <ele>1482.490234</ele>
        <time>2015-07-19T11:00:01Z</time>
      </trkpt>
      <trkpt lat="44.39366" lon="3.83265">
        <ele>1482.970703</ele>
        <time>2015-07-19T11:00:32Z</time>
      </trkpt>
      <trkpt lat="44.39353" lon="3.83258">
        <ele>1481.528809</ele>
        <time>2015-07-19T11:00:53Z</time>
      </trkpt>
      <trkpt lat="44.39299" lon="3.83213">
        <ele>1480.086914</ele>
        <time>2015-07-19T11:02:14Z</time>
      </trkpt>
      <trkpt lat="44.39288" lon="3.832">
        <ele>1480.086914</ele>
        <time>2015-07-19T11:02:27Z</time>
      </trkpt>
      <trkpt lat="44.39269" lon="3.83196">
        <ele>1479.606201</ele>
        <time>2015-07-19T11:04:24Z</time>
      </trkpt>
      <trkpt lat="44.39258" lon="3.83185">
        <ele>1478.164307</ele>
        <time>2015-07-19T11:04:37Z</time>
      </trkpt>
      <trkpt lat="44.3921" lon="3.83168">
        <ele>1475.760986</ele>
        <time>2015-07-19T11:05:33Z</time>
      </trkpt>
      <trkpt lat="44.39178" lon="3.83146">
        <ele>1472.396484</ele>
        <time>2015-07-19T11:06:08Z</time>
      </trkpt>
      <trkpt lat="44.39153" lon="3.83139">
        <ele>1471.915771</ele>
        <time>2015-07-19T11:06:30Z</time>
      </trkpt>
      <trkpt lat="44.39128" lon="3.83125">
        <ele>1470.473877</ele>
        <time>2015-07-19T11:06:54Z</time>
      </trkpt>
      <trkpt lat="44.39111" lon="3.83124">
        <ele>1469.993164</ele>
        <time>2015-07-19T11:07:10Z</time>
      </trkpt>
      <trkpt lat="44.39075" lon="3.83124">
        <ele>1466.628418</ele>
        <time>2015-07-19T11:07:45Z</time>
      </trkpt>
      <trkpt lat="44.39056" lon="3.83129">
        <ele>1465.667236</ele>
        <time>2015-07-19T11:08:01Z</time>
      </trkpt>
      <trkpt lat="44.38973" lon="3.83135">
        <ele>1466.628418</ele>
        <time>2015-07-19T11:09:18Z</time>
      </trkpt>
      <trkpt lat="44.38953" lon="3.83141">
        <ele>1465.667236</ele>
        <time>2015-07-19T11:09:35Z</time>
      </trkpt>
      <trkpt lat="44.38915" lon="3.83171">
        <ele>1461.822021</ele>
        <time>2015-07-19T11:10:14Z</time>
      </trkpt>
      <trkpt lat="44.38886" lon="3.83187">
        <ele>1462.30249</ele>
        <time>2015-07-19T11:11:20Z</time>
      </trkpt>
      <trkpt lat="44.38875" lon="3.83197">
        <ele>1461.822021</ele>
        <time>2015-07-19T11:11:34Z</time>
      </trkpt>
      <trkpt lat="44.38862" lon="3.83218">
        <ele>1461.341309</ele>
        <time>2015-07-19T11:11:51Z</time>
      </trkpt>
      <trkpt lat="44.38843" lon="3.83231">
        <ele>1462.30249</ele>
        <time>2015-07-19T11:12:17Z</time>
      </trkpt>
      <trkpt lat="44.38824" lon="3.83268">
        <ele>1460.860596</ele>
        <time>2015-07-19T11:13:04Z</time>
      </trkpt>
      <trkpt lat="44.3882" lon="3.83287">
        <ele>1461.341309</ele>
        <time>2015-07-19T11:14:35Z</time>
      </trkpt>
      <trkpt lat="44.38791" lon="3.83326">
        <ele>1453.170166</ele>
        <time>2015-07-19T11:17:09Z</time>
      </trkpt>
      <trkpt lat="44.3878" lon="3.83347">
        <ele>1450.286133</ele>
        <time>2015-07-19T11:17:46Z</time>
      </trkpt>
      <trkpt lat="44.3876" lon="3.83348">
        <ele>1451.728027</ele>
        <time>2015-07-19T11:52:40Z</time>
      </trkpt>
      <trkpt lat="44.38745" lon="3.83358">
        <ele>1449.80542</ele>
        <time>2015-07-19T11:53:19Z</time>
      </trkpt>
      <trkpt lat="44.3872" lon="3.83357">
        <ele>1450.766602</ele>
        <time>2015-07-19T11:53:44Z</time>
      </trkpt>
      <trkpt lat="44.38688" lon="3.83338">
        <ele>1448.843994</ele>
        <time>2015-07-19T11:54:20Z</time>
      </trkpt>
      <trkpt lat="44.38656" lon="3.83343">
        <ele>1444.998779</ele>
        <time>2015-07-19T11:54:54Z</time>
      </trkpt>
      <trkpt lat="44.38628" lon="3.83365">
        <ele>1445.479492</ele>
        <time>2015-07-19T11:55:38Z</time>
      </trkpt>
      <trkpt lat="44.38591" lon="3.83374">
        <ele>1444.037598</ele>
        <time>2015-07-19T11:56:18Z</time>
      </trkpt>
      <trkpt lat="44.38573" lon="3.83354">
        <ele>1442.595703</ele>
        <time>2015-07-19T11:56:43Z</time>
      </trkpt>
      <trkpt lat="44.38532" lon="3.8332">
        <ele>1433.462891</ele>
        <time>2015-07-19T11:57:58Z</time>
      </trkpt>
      <trkpt lat="44.38494" lon="3.83312">
        <ele>1429.136963</ele>
        <time>2015-07-19T11:58:49Z</time>
      </trkpt>
      <trkpt lat="44.38473" lon="3.83319">
        <ele>1426.733887</ele>
        <time>2015-07-19T11:59:11Z</time>
      </trkpt>
      <trkpt lat="44.38457" lon="3.83327">
        <ele>1425.291748</ele>
        <time>2015-07-19T11:59:27Z</time>
      </trkpt>
      <trkpt lat="44.38448" lon="3.8334">
        <ele>1424.811279</ele>
        <time>2015-07-19T11:59:41Z</time>
      </trkpt>
      <trkpt lat="44.38419" lon="3.83354">
        <ele>1420.966064</ele>
        <time>2015-07-19T12:00:24Z</time>
      </trkpt>
      <trkpt lat="44.38407" lon="3.83365">
        <ele>1419.043213</ele>
        <time>2015-07-19T12:00:39Z</time>
      </trkpt>
      <trkpt lat="44.38398" lon="3.8338">
        <ele>1418.081787</ele>
        <time>2015-07-19T12:01:26Z</time>
      </trkpt>
      <trkpt lat="44.38367" lon="3.83414">
        <ele>1409.910645</ele>
        <time>2015-07-19T12:02:32Z</time>
      </trkpt>
      <trkpt lat="44.38362" lon="3.83434">
        <ele>1408.949463</ele>
        <time>2015-07-19T12:02:48Z</time>
      </trkpt>
      <trkpt lat="44.38365" lon="3.83463">
        <ele>1408.949463</ele>
        <time>2015-07-19T12:03:10Z</time>
      </trkpt>
      <trkpt lat="44.38351" lon="3.83528">
        <ele>1405.104248</ele>
        <time>2015-07-19T12:04:09Z</time>
      </trkpt>
      <trkpt lat="44.38342" lon="3.83548">
        <ele>1404.623535</ele>
        <time>2015-07-19T12:05:29Z</time>
      </trkpt>
      <trkpt lat="44.38329" lon="3.8356">
        <ele>1402.219971</ele>
        <time>2015-07-19T12:05:54Z</time>
      </trkpt>
      <trkpt lat="44.3831" lon="3.83565">
        <ele>1398.374756</ele>
        <time>2015-07-19T12:06:17Z</time>
      </trkpt>
      <trkpt lat="44.38292" lon="3.83552">
        <ele>1395.010254</ele>
        <time>2015-07-19T12:06:41Z</time>
      </trkpt>
      <trkpt lat="44.38251" lon="3.83534">
        <ele>1388.761963</ele>
        <time>2015-07-19T12:09:13Z</time>
      </trkpt>
      <trkpt lat="44.38235" lon="3.83531">
        <ele>1386.838867</ele>
        <time>2015-07-19T12:09:57Z</time>
      </trkpt>
      <trkpt lat="44.38223" lon="3.83538">
        <ele>1386.838867</ele>
        <time>2015-07-19T12:10:43Z</time>
      </trkpt>
      <trkpt lat="44.38218" lon="3.83558">
        <ele>1384.435791</ele>
        <time>2015-07-19T12:11:14Z</time>
      </trkpt>
      <trkpt lat="44.38208" lon="3.83579">
        <ele>1382.032471</ele>
        <time>2015-07-19T12:11:37Z</time>
      </trkpt>
      <trkpt lat="44.38199" lon="3.8359">
        <ele>1379.148438</ele>
        <time>2015-07-19T12:11:50Z</time>
      </trkpt>
      <trkpt lat="44.38221" lon="3.83646">
        <ele>1379.148438</ele>
        <time>2015-07-19T12:12:39Z</time>
      </trkpt>
      <trkpt lat="44.38232" lon="3.83709">
        <ele>1376.745361</ele>
        <time>2015-07-19T12:13:26Z</time>
      </trkpt>
      <trkpt lat="44.38229" lon="3.83729">
        <ele>1375.303223</ele>
        <time>2015-07-19T12:14:50Z</time>
      </trkpt>
      <trkpt lat="44.3823" lon="3.83759">
        <ele>1373.380859</ele>
        <time>2015-07-19T12:15:19Z</time>
      </trkpt>
      <trkpt lat="44.38224" lon="3.83779">
        <ele>1372.419434</ele>
        <time>2015-07-19T12:15:47Z</time>
      </trkpt>
      <trkpt lat="44.38213" lon="3.83791">
        <ele>1370.496582</ele>
        <time>2015-07-19T12:16:00Z</time>
      </trkpt>
      <trkpt lat="44.38187" lon="3.83789">
        <ele>1368.573975</ele>
        <time>2015-07-19T12:16:24Z</time>
      </trkpt>
      <trkpt lat="44.38176" lon="3.83796">
        <ele>1368.573975</ele>
        <time>2015-07-19T12:16:39Z</time>
      </trkpt>
      <trkpt lat="44.3817" lon="3.83781">
        <ele>1367.612549</ele>
        <time>2015-07-19T12:17:47Z</time>
      </trkpt>
      <trkpt lat="44.38155" lon="3.83788">
        <ele>1369.5354</ele>
        <time>2015-07-19T12:18:12Z</time>
      </trkpt>
      <trkpt lat="44.38152" lon="3.83811">
        <ele>1368.573975</ele>
        <time>2015-07-19T12:19:07Z</time>
      </trkpt>
      <trkpt lat="44.38139" lon="3.83821">
        <ele>1368.573975</ele>
        <time>2015-07-19T12:19:20Z</time>
      </trkpt>
      <trkpt lat="44.38125" lon="3.83827">
        <ele>1368.573975</ele>
        <time>2015-07-19T12:19:36Z</time>
      </trkpt>
      <trkpt lat="44.38108" lon="3.83833">
        <ele>1367.612549</ele>
        <time>2015-07-19T12:19:53Z</time>
      </trkpt>
      <trkpt lat="44.38088" lon="3.83834">
        <ele>1368.093262</ele>
        <time>2015-07-19T12:20:10Z</time>
      </trkpt>
      <trkpt lat="44.38065" lon="3.83845">
        <ele>1367.13208</ele>
        <time>2015-07-19T12:20:41Z</time>
      </trkpt>
      <trkpt lat="44.38059" lon="3.83863">
        <ele>1368.093262</ele>
        <time>2015-07-19T12:20:59Z</time>
      </trkpt>
      <trkpt lat="44.38039" lon="3.83878">
        <ele>1368.093262</ele>
        <time>2015-07-19T12:21:24Z</time>
      </trkpt>
      <trkpt lat="44.3803" lon="3.83889">
        <ele>1368.573975</ele>
        <time>2015-07-19T12:21:42Z</time>
      </trkpt>
      <trkpt lat="44.38045" lon="3.83892">
        <ele>1370.496582</ele>
        <time>2015-07-19T12:22:10Z</time>
      </trkpt>
      <trkpt lat="44.38058" lon="3.8391">
        <ele>1370.977295</ele>
        <time>2015-07-19T12:22:28Z</time>
      </trkpt>
      <trkpt lat="44.38086" lon="3.83933">
        <ele>1369.5354</ele>
        <time>2015-07-19T12:22:59Z</time>
      </trkpt>
      <trkpt lat="44.38111" lon="3.83981">
        <ele>1370.977295</ele>
        <time>2015-07-19T12:23:39Z</time>
      </trkpt>
      <trkpt lat="44.38112" lon="3.84002">
        <ele>1369.5354</ele>
        <time>2015-07-19T12:23:54Z</time>
      </trkpt>
      <trkpt lat="44.38106" lon="3.84027">
        <ele>1371.457764</ele>
        <time>2015-07-19T12:24:12Z</time>
      </trkpt>
      <trkpt lat="44.38094" lon="3.84037">
        <ele>1371.457764</ele>
        <time>2015-07-19T12:24:25Z</time>
      </trkpt>
      <trkpt lat="44.38093" lon="3.84119">
        <ele>1374.342041</ele>
        <time>2015-07-19T12:25:25Z</time>
      </trkpt>
      <trkpt lat="44.38087" lon="3.84161">
        <ele>1378.187256</ele>
        <time>2015-07-19T12:26:17Z</time>
      </trkpt>
      <trkpt lat="44.38077" lon="3.84183">
        <ele>1380.109863</ele>
        <time>2015-07-19T12:26:40Z</time>
      </trkpt>
      <trkpt lat="44.38078" lon="3.84208">
        <ele>1385.396973</ele>
        <time>2015-07-19T12:27:13Z</time>
      </trkpt>
      <trkpt lat="44.38074" lon="3.84231">
        <ele>1388.28125</ele>
        <time>2015-07-19T12:28:48Z</time>
      </trkpt>
      <trkpt lat="44.38061" lon="3.84252">
        <ele>1390.203857</ele>
        <time>2015-07-19T12:29:07Z</time>
      </trkpt>
      <trkpt lat="44.38046" lon="3.84294">
        <ele>1392.126465</ele>
        <time>2015-07-19T12:29:37Z</time>
      </trkpt>
      <trkpt lat="44.3803" lon="3.84327">
        <ele>1395.010254</ele>
        <time>2015-07-19T12:30:04Z</time>
      </trkpt>
      <trkpt lat="44.38023" lon="3.84347">
        <ele>1394.529541</ele>
        <time>2015-07-19T12:30:19Z</time>
      </trkpt>
      <trkpt lat="44.38019" lon="3.84373">
        <ele>1396.452393</ele>
        <time>2015-07-19T12:30:36Z</time>
      </trkpt>
      <trkpt lat="44.38016" lon="3.844">
        <ele>1398.374756</ele>
        <time>2015-07-19T12:30:55Z</time>
      </trkpt>
      <trkpt lat="44.38017" lon="3.84441">
        <ele>1399.336182</ele>
        <time>2015-07-19T12:31:23Z</time>
      </trkpt>
      <trkpt lat="44.38039" lon="3.84583">
        <ele>1402.219971</ele>
        <time>2015-07-19T12:33:20Z</time>
      </trkpt>
      <trkpt lat="44.38024" lon="3.84584">
        <ele>1400.297607</ele>
        <time>2015-07-19T12:33:35Z</time>
      </trkpt>
      <trkpt lat="44.3801" lon="3.84597">
        <ele>1398.374756</ele>
        <time>2015-07-19T12:33:49Z</time>
      </trkpt>
      <trkpt lat="44.3797" lon="3.84586">
        <ele>1392.607178</ele>
        <time>2015-07-19T12:34:38Z</time>
      </trkpt>
      <trkpt lat="44.37967" lon="3.84607">
        <ele>1391.645752</ele>
        <time>2015-07-19T12:35:28Z</time>
      </trkpt>
      <trkpt lat="44.37963" lon="3.8459">
        <ele>1391.645752</ele>
        <time>2015-07-19T13:13:26Z</time>
      </trkpt>
      <trkpt lat="44.37937" lon="3.84565">
        <ele>1392.126465</ele>
        <time>2015-07-19T13:14:46Z</time>
      </trkpt>
      <trkpt lat="44.3795" lon="3.8457">
        <ele>1391.645752</ele>
        <time>2015-07-19T13:15:56Z</time>
      </trkpt>
      <trkpt lat="44.37964" lon="3.8459">
        <ele>1390.203857</ele>
        <time>2015-07-19T13:17:32Z</time>
      </trkpt>
      <trkpt lat="44.37982" lon="3.84597">
        <ele>1394.049072</ele>
        <time>2015-07-19T13:19:03Z</time>
      </trkpt>
      <trkpt lat="44.37991" lon="3.84608">
        <ele>1393.568359</ele>
        <time>2015-07-19T13:20:28Z</time>
      </trkpt>
      <trkpt lat="44.37999" lon="3.84596">
        <ele>1393.568359</ele>
        <time>2015-07-19T13:21:24Z</time>
      </trkpt>
      <trkpt lat="44.38016" lon="3.84594">
        <ele>1397.413574</ele>
        <time>2015-07-19T13:22:08Z</time>
      </trkpt>
      <trkpt lat="44.38032" lon="3.84582">
        <ele>1401.258789</ele>
        <time>2015-07-19T13:22:30Z</time>
      </trkpt>
      <trkpt lat="44.38055" lon="3.84602">
        <ele>1403.662109</ele>
        <time>2015-07-19T13:22:59Z</time>
      </trkpt>
      <trkpt lat="44.38067" lon="3.84617">
        <ele>1404.143066</ele>
        <time>2015-07-19T13:23:15Z</time>
      </trkpt>
      <trkpt lat="44.38106" lon="3.84674">
        <ele>1406.06543</ele>
        <time>2015-07-19T13:24:26Z</time>
      </trkpt>
      <trkpt lat="44.38138" lon="3.84745">
        <ele>1407.026855</ele>
        <time>2015-07-19T13:25:18Z</time>
      </trkpt>
      <trkpt lat="44.38145" lon="3.84768">
        <ele>1408.949463</ele>
        <time>2015-07-19T13:25:36Z</time>
      </trkpt>
      <trkpt lat="44.38147" lon="3.84789">
        <ele>1410.87207</ele>
        <time>2015-07-19T13:25:51Z</time>
      </trkpt>
      <trkpt lat="44.38141" lon="3.84814">
        <ele>1411.833496</ele>
        <time>2015-07-19T13:26:06Z</time>
      </trkpt>
      <trkpt lat="44.3813" lon="3.84835">
        <ele>1411.833496</ele>
        <time>2015-07-19T13:26:23Z</time>
      </trkpt>
      <trkpt lat="44.38119" lon="3.8487">
        <ele>1414.717285</ele>
        <time>2015-07-19T13:26:46Z</time>
      </trkpt>
      <trkpt lat="44.3812" lon="3.84896">
        <ele>1414.717285</ele>
        <time>2015-07-19T13:27:02Z</time>
      </trkpt>
      <trkpt lat="44.38126" lon="3.84931">
        <ele>1415.197998</ele>
        <time>2015-07-19T13:27:27Z</time>
      </trkpt>
      <trkpt lat="44.38131" lon="3.84952">
        <ele>1418.081787</ele>
        <time>2015-07-19T13:27:42Z</time>
      </trkpt>
      <trkpt lat="44.38141" lon="3.84972">
        <ele>1418.081787</ele>
        <time>2015-07-19T13:27:58Z</time>
      </trkpt>
      <trkpt lat="44.38153" lon="3.85018">
        <ele>1418.5625</ele>
        <time>2015-07-19T13:28:27Z</time>
      </trkpt>
      <trkpt lat="44.3816" lon="3.8503">
        <ele>1418.081787</ele>
        <time>2015-07-19T13:28:38Z</time>
      </trkpt>
      <trkpt lat="44.38172" lon="3.85064">
        <ele>1423.369385</ele>
        <time>2015-07-19T13:29:04Z</time>
      </trkpt>
      <trkpt lat="44.38181" lon="3.85075">
        <ele>1423.849854</ele>
        <time>2015-07-19T13:29:14Z</time>
      </trkpt>
      <trkpt lat="44.38199" lon="3.85086">
        <ele>1423.369385</ele>
        <time>2015-07-19T13:29:30Z</time>
      </trkpt>
      <trkpt lat="44.38221" lon="3.8509">
        <ele>1421.927246</ele>
        <time>2015-07-19T13:29:50Z</time>
      </trkpt>
      <trkpt lat="44.38266" lon="3.8509">
        <ele>1422.407959</ele>
        <time>2015-07-19T13:30:36Z</time>
      </trkpt>
      <trkpt lat="44.3828" lon="3.85097">
        <ele>1419.523926</ele>
        <time>2015-07-19T13:31:30Z</time>
      </trkpt>
      <trkpt lat="44.38291" lon="3.85111">
        <ele>1420.966064</ele>
        <time>2015-07-19T13:32:02Z</time>
      </trkpt>
      <trkpt lat="44.38301" lon="3.85146">
        <ele>1423.849854</ele>
        <time>2015-07-19T13:32:41Z</time>
      </trkpt>
      <trkpt lat="44.38315" lon="3.85163">
        <ele>1425.291748</ele>
        <time>2015-07-19T13:33:00Z</time>
      </trkpt>
      <trkpt lat="44.38346" lon="3.85216">
        <ele>1428.656494</ele>
        <time>2015-07-19T13:34:13Z</time>
      </trkpt>
      <trkpt lat="44.38344" lon="3.85243">
        <ele>1432.020996</ele>
        <time>2015-07-19T13:34:40Z</time>
      </trkpt>
      <trkpt lat="44.38354" lon="3.85261">
        <ele>1432.982178</ele>
        <time>2015-07-19T13:34:59Z</time>
      </trkpt>
      <trkpt lat="44.38354" lon="3.85283">
        <ele>1435.385498</ele>
        <time>2015-07-19T13:35:13Z</time>
      </trkpt>
      <trkpt lat="44.38362" lon="3.85307">
        <ele>1437.789062</ele>
        <time>2015-07-19T13:35:38Z</time>
      </trkpt>
      <trkpt lat="44.38345" lon="3.85313">
        <ele>1437.789062</ele>
        <time>2015-07-19T13:35:56Z</time>
      </trkpt>
      <trkpt lat="44.3833" lon="3.85325">
        <ele>1440.192383</ele>
        <time>2015-07-19T13:36:16Z</time>
      </trkpt>
      <trkpt lat="44.3831" lon="3.85355">
        <ele>1440.672852</ele>
        <time>2015-07-19T13:36:41Z</time>
      </trkpt>
      <trkpt lat="44.38301" lon="3.85377">
        <ele>1440.672852</ele>
        <time>2015-07-19T13:36:56Z</time>
      </trkpt>
      <trkpt lat="44.38296" lon="3.85403">
        <ele>1440.192383</ele>
        <time>2015-07-19T13:37:11Z</time>
      </trkpt>
      <trkpt lat="44.38303" lon="3.85478">
        <ele>1437.30835</ele>
        <time>2015-07-19T13:37:59Z</time>
      </trkpt>
      <trkpt lat="44.38311" lon="3.85492">
        <ele>1437.789062</ele>
        <time>2015-07-19T13:38:27Z</time>
      </trkpt>
      <trkpt lat="44.38334" lon="3.85573">
        <ele>1435.385498</ele>
        <time>2015-07-19T13:39:34Z</time>
      </trkpt>
      <trkpt lat="44.38341" lon="3.85586">
        <ele>1434.905029</ele>
        <time>2015-07-19T13:39:44Z</time>
      </trkpt>
      <trkpt lat="44.38354" lon="3.8562">
        <ele>1434.424316</ele>
        <time>2015-07-19T13:40:15Z</time>
      </trkpt>
      <trkpt lat="44.38363" lon="3.85701">
        <ele>1433.943604</ele>
        <time>2015-07-19T13:41:06Z</time>
      </trkpt>
      <trkpt lat="44.38365" lon="3.85789">
        <ele>1434.424316</ele>
        <time>2015-07-19T13:43:06Z</time>
      </trkpt>
      <trkpt lat="44.38361" lon="3.85998">
        <ele>1433.462891</ele>
        <time>2015-07-19T13:45:20Z</time>
      </trkpt>
      <trkpt lat="44.38362" lon="3.86025">
        <ele>1433.462891</ele>
        <time>2015-07-19T13:45:39Z</time>
      </trkpt>
      <trkpt lat="44.38358" lon="3.86049">
        <ele>1433.462891</ele>
        <time>2015-07-19T13:46:14Z</time>
      </trkpt>
      <trkpt lat="44.3836" lon="3.86086">
        <ele>1433.943604</ele>
        <time>2015-07-19T13:46:39Z</time>
      </trkpt>
      <trkpt lat="44.38351" lon="3.86166">
        <ele>1436.827637</ele>
        <time>2015-07-19T13:47:47Z</time>
      </trkpt>
      <trkpt lat="44.38344" lon="3.86191">
        <ele>1437.789062</ele>
        <time>2015-07-19T13:48:07Z</time>
      </trkpt>
      <trkpt lat="44.38341" lon="3.86242">
        <ele>1439.71167</ele>
        <time>2015-07-19T13:48:39Z</time>
      </trkpt>
      <trkpt lat="44.38345" lon="3.86267">
        <ele>1439.230957</ele>
        <time>2015-07-19T13:48:54Z</time>
      </trkpt>
      <trkpt lat="44.38366" lon="3.86317">
        <ele>1439.230957</ele>
        <time>2015-07-19T13:49:30Z</time>
      </trkpt>
      <trkpt lat="44.38388" lon="3.86388">
        <ele>1436.827637</ele>
        <time>2015-07-19T13:50:20Z</time>
      </trkpt>
      <trkpt lat="44.38397" lon="3.86402">
        <ele>1435.866211</ele>
        <time>2015-07-19T13:50:32Z</time>
      </trkpt>
      <trkpt lat="44.38419" lon="3.86461">
        <ele>1435.866211</ele>
        <time>2015-07-19T13:51:10Z</time>
      </trkpt>
      <trkpt lat="44.38422" lon="3.8649">
        <ele>1433.462891</ele>
        <time>2015-07-19T13:51:28Z</time>
      </trkpt>
      <trkpt lat="44.38419" lon="3.86516">
        <ele>1433.943604</ele>
        <time>2015-07-19T13:51:48Z</time>
      </trkpt>
      <trkpt lat="44.38408" lon="3.86551">
        <ele>1433.462891</ele>
        <time>2015-07-19T13:52:12Z</time>
      </trkpt>
      <trkpt lat="44.38414" lon="3.86583">
        <ele>1432.501709</ele>
        <time>2015-07-19T13:52:37Z</time>
      </trkpt>
      <trkpt lat="44.38423" lon="3.86607">
        <ele>1431.540283</ele>
        <time>2015-07-19T13:52:54Z</time>
      </trkpt>
      <trkpt lat="44.38442" lon="3.86642">
        <ele>1431.059814</ele>
        <time>2015-07-19T13:53:25Z</time>
      </trkpt>
      <trkpt lat="44.38459" lon="3.86662">
        <ele>1431.540283</ele>
        <time>2015-07-19T13:53:48Z</time>
      </trkpt>
      <trkpt lat="44.38474" lon="3.86672">
        <ele>1431.540283</ele>
        <time>2015-07-19T13:54:01Z</time>
      </trkpt>
      <trkpt lat="44.38496" lon="3.86655">
        <ele>1435.385498</ele>
        <time>2015-07-19T13:54:27Z</time>
      </trkpt>
      <trkpt lat="44.38501" lon="3.86673">
        <ele>1438.269775</ele>
        <time>2015-07-19T14:02:13Z</time>
      </trkpt>
      <trkpt lat="44.38506" lon="3.86658">
        <ele>1437.30835</ele>
        <time>2015-07-19T14:04:49Z</time>
      </trkpt>
      <trkpt lat="44.38502" lon="3.8667">
        <ele>1436.827637</ele>
        <time>2015-07-19T14:10:07Z</time>
      </trkpt>
    </trkseg>
  </trk>
</gpx>